createdAt,value
2017-06-16T00:00:45.616Z,98605
2017-06-16T00:03:13.696Z,98599
2017-06-16T00:05:41.774Z,98597
2017-06-16T00:08:09.848Z,98603
2017-06-16T00:10:37.918Z,98594
2017-06-16T00:13:06.003Z,98597
2017-06-16T00:15:34.842Z,98592
2017-06-16T00:18:02.912Z,98605
2017-06-16T00:20:30.985Z,98598
2017-06-16T00:22:59.057Z,98598
2017-06-16T00:25:27.146Z,98600
2017-06-16T00:27:55.219Z,98604
2017-06-16T00:30:23.287Z,98606
2017-06-16T00:32:51.358Z,98605
2017-06-16T00:35:19.450Z,98611
2017-06-16T00:37:47.521Z,98601
2017-06-16T00:40:15.584Z,98606
2017-06-16T00:42:43.668Z,98604
2017-06-16T00:45:11.740Z,98608
2017-06-16T00:47:39.811Z,98610
2017-06-16T00:50:07.882Z,98609
2017-06-16T00:52:35.954Z,98613
2017-06-16T00:55:04.027Z,98608
2017-06-16T00:57:32.162Z,98615
2017-06-16T01:00:00.234Z,98617
2017-06-16T01:02:28.323Z,98609
2017-06-16T01:04:56.391Z,98620
2017-06-16T01:07:24.455Z,98615
2017-06-16T01:09:52.526Z,98614
2017-06-16T01:12:20.599Z,98621
2017-06-16T01:14:48.675Z,98623
2017-06-16T01:17:16.743Z,98626
2017-06-16T01:19:44.815Z,98634
2017-06-16T01:22:12.889Z,98633
2017-06-16T01:24:40.963Z,98628
2017-06-16T01:27:09.135Z,98635
2017-06-16T01:29:37.208Z,98636
2017-06-16T01:32:05.278Z,98646
2017-06-16T01:34:33.351Z,98641
2017-06-16T01:37:01.423Z,98648
2017-06-16T01:39:29.495Z,98655
2017-06-16T01:41:57.572Z,98649
2017-06-16T01:44:25.657Z,98641
2017-06-16T01:46:53.722Z,98651
2017-06-16T01:49:21.784Z,98657
2017-06-16T01:51:49.863Z,98660
2017-06-16T01:54:17.929Z,98659
2017-06-16T01:56:46.008Z,98661
2017-06-16T01:59:14.082Z,98666
2017-06-16T02:01:42.161Z,98671
2017-06-16T02:04:10.222Z,98669
2017-06-16T02:06:38.294Z,98677
2017-06-16T02:09:06.363Z,98679
2017-06-16T02:11:34.446Z,98685
2017-06-16T02:14:02.510Z,98691
2017-06-16T02:16:30.578Z,98690
2017-06-16T02:18:58.656Z,98695
2017-06-16T02:21:26.726Z,98697
2017-06-16T02:23:54.802Z,98704
2017-06-16T02:26:22.870Z,98702
2017-06-16T02:28:50.966Z,98701
2017-06-16T02:31:19.039Z,98709
2017-06-16T02:33:47.111Z,98707
2017-06-16T02:36:15.191Z,98711
2017-06-16T02:38:43.254Z,98718
2017-06-16T02:41:11.326Z,98717
2017-06-16T02:43:39.407Z,98719
2017-06-16T02:46:07.482Z,98720
2017-06-16T02:48:35.544Z,98724
2017-06-16T02:51:03.634Z,98728
2017-06-16T02:53:31.707Z,98727
2017-06-16T02:55:59.774Z,98731
2017-06-16T02:58:27.855Z,98723
2017-06-16T03:00:55.924Z,98730
2017-06-16T03:03:23.999Z,98723
2017-06-16T03:05:52.070Z,98731
2017-06-16T03:08:20.152Z,98739
2017-06-16T03:10:48.210Z,98734
2017-06-16T03:13:16.285Z,98741
2017-06-16T03:15:44.366Z,98754
2017-06-16T03:18:12.459Z,98750
2017-06-16T03:20:40.522Z,98750
2017-06-16T03:23:08.592Z,98752
2017-06-16T03:25:36.662Z,98748
2017-06-16T03:28:05.495Z,98753
2017-06-16T03:30:33.574Z,98754
2017-06-16T03:33:01.642Z,98749
2017-06-16T03:35:29.727Z,98760
2017-06-16T03:37:57.791Z,98755
2017-06-16T03:40:25.871Z,98763
2017-06-16T03:42:53.942Z,98755
2017-06-16T03:45:22.014Z,98755
2017-06-16T03:47:50.102Z,98757
2017-06-16T03:50:18.170Z,98756
2017-06-16T03:52:46.247Z,98759
2017-06-16T03:55:14.318Z,98761
2017-06-16T03:57:42.410Z,98764
2017-06-16T04:00:10.474Z,98764
2017-06-16T04:02:38.578Z,98764
2017-06-16T04:05:07.408Z,98770
2017-06-16T04:07:35.487Z,98776
2017-06-16T04:10:03.545Z,98781
2017-06-16T04:12:31.618Z,98774
2017-06-16T04:14:59.694Z,98776
2017-06-16T04:17:27.795Z,98788
2017-06-16T04:19:55.870Z,98780
2017-06-16T04:22:23.942Z,98788
2017-06-16T04:24:52.014Z,98784
2017-06-16T04:27:20.091Z,98792
2017-06-16T04:29:48.174Z,98794
2017-06-16T04:32:16.238Z,98793
2017-06-16T04:34:44.328Z,98792
2017-06-16T04:37:12.390Z,98804
2017-06-16T04:39:40.450Z,98803
2017-06-16T04:42:08.524Z,98807
2017-06-16T04:44:36.594Z,98798
2017-06-16T04:47:04.666Z,98805
2017-06-16T04:49:32.743Z,98799
2017-06-16T04:52:00.822Z,98803
2017-06-16T04:54:28.887Z,98801
2017-06-16T04:56:56.999Z,98814
2017-06-16T04:59:25.062Z,98824
2017-06-16T05:01:53.138Z,98823
2017-06-16T05:04:21.207Z,98826
2017-06-16T05:06:49.298Z,98819
2017-06-16T05:09:17.367Z,98824
2017-06-16T05:11:45.426Z,98829
2017-06-16T05:14:13.494Z,98834
2017-06-16T05:16:42.326Z,98837
2017-06-16T05:19:10.442Z,98831
2017-06-16T05:21:38.502Z,98835
2017-06-16T05:24:06.886Z,98841
2017-06-16T05:26:34.950Z,98843
2017-06-16T05:29:03.023Z,98852
2017-06-16T05:31:31.095Z,98857
2017-06-16T05:33:59.175Z,98861
2017-06-16T05:36:27.242Z,98859
2017-06-16T05:38:55.322Z,98855
2017-06-16T05:41:23.399Z,98866
2017-06-16T05:43:51.459Z,98863
2017-06-16T05:46:19.532Z,98859
2017-06-16T05:48:47.602Z,98856
2017-06-16T05:51:15.674Z,98852
2017-06-16T05:53:43.755Z,98869
2017-06-16T05:56:11.827Z,98867
2017-06-16T05:58:39.891Z,98873
2017-06-16T06:01:07.967Z,98867
2017-06-16T06:03:36.039Z,98874
2017-06-16T06:06:04.138Z,98870
2017-06-16T06:08:32.970Z,98876
2017-06-16T06:11:01.058Z,98881
2017-06-16T06:13:29.131Z,98882
2017-06-16T06:15:57.198Z,98897
2017-06-16T06:18:25.271Z,98891
2017-06-16T06:20:53.339Z,98893
2017-06-16T06:23:21.418Z,98893
2017-06-16T06:25:49.490Z,98884
2017-06-16T06:28:17.558Z,98896
2017-06-16T06:30:45.634Z,98877
2017-06-16T06:33:13.715Z,98887
2017-06-16T06:35:41.987Z,98900
2017-06-16T06:38:10.071Z,98885
2017-06-16T06:40:38.136Z,98887
2017-06-16T06:43:06.198Z,98887
2017-06-16T06:45:34.276Z,98890
2017-06-16T06:48:02.347Z,98882
2017-06-16T06:50:30.419Z,98897
2017-06-16T06:52:58.486Z,98895
2017-06-16T06:55:26.569Z,98889
2017-06-16T06:57:54.641Z,98888
2017-06-16T07:00:22.738Z,98889
2017-06-16T07:02:50.808Z,98905
2017-06-16T07:05:18.882Z,98894
2017-06-16T07:07:47.718Z,98897
2017-06-16T07:10:15.791Z,98902
2017-06-16T07:12:43.866Z,98916
2017-06-16T07:15:11.936Z,98908
2017-06-16T07:17:40.019Z,98928
2017-06-16T07:20:08.088Z,98927
2017-06-16T07:22:36.154Z,98925
2017-06-16T07:25:04.226Z,98925
2017-06-16T07:27:32.303Z,98928
2017-06-16T07:30:00.375Z,98926
2017-06-16T07:32:28.447Z,98938
2017-06-16T07:34:56.523Z,98930
2017-06-16T07:37:24.587Z,98934
2017-06-16T07:39:52.684Z,98924
2017-06-16T07:42:20.759Z,98939
2017-06-16T07:44:48.827Z,98940
2017-06-16T07:47:16.899Z,98945
2017-06-16T07:49:44.976Z,98943
2017-06-16T07:52:13.046Z,98949
2017-06-16T07:54:41.114Z,98942
2017-06-16T07:57:09.191Z,98939
2017-06-16T07:59:37.262Z,98946
2017-06-16T08:02:05.350Z,98949
2017-06-16T08:04:33.410Z,98950
2017-06-16T08:07:01.481Z,98948
2017-06-16T08:09:29.554Z,98947
2017-06-16T08:11:57.623Z,98948
2017-06-16T08:14:25.699Z,98952
2017-06-16T08:16:53.773Z,98949
2017-06-16T08:19:21.843Z,98960
2017-06-16T08:21:49.911Z,98960
2017-06-16T08:24:17.986Z,98959
2017-06-16T08:26:46.055Z,98969
2017-06-16T08:29:14.142Z,98960
2017-06-16T08:31:42.259Z,98963
2017-06-16T08:34:10.319Z,98969
2017-06-16T08:36:39.166Z,98970
2017-06-16T08:39:07.242Z,98968
2017-06-16T08:41:35.306Z,98984
2017-06-16T08:44:03.375Z,98984
2017-06-16T08:46:31.456Z,98985
2017-06-16T08:48:59.519Z,98982
2017-06-16T08:51:27.603Z,98979
2017-06-16T08:53:55.671Z,98980
2017-06-16T08:56:23.743Z,98976
2017-06-16T08:58:51.818Z,98978
2017-06-16T09:01:19.893Z,98981
2017-06-16T09:03:47.969Z,98985
2017-06-16T09:06:16.035Z,98988
2017-06-16T09:08:44.119Z,98985
2017-06-16T09:11:12.199Z,98993
2017-06-16T09:13:40.281Z,98990
2017-06-16T09:16:09.132Z,98993
2017-06-16T09:18:37.205Z,98999
2017-06-16T09:21:05.286Z,98992
2017-06-16T09:23:33.360Z,98999
2017-06-16T09:26:01.435Z,98991
2017-06-16T09:28:29.503Z,98993
2017-06-16T09:30:57.575Z,99001
2017-06-16T09:33:25.652Z,99000
2017-06-16T09:35:53.740Z,98987
2017-06-16T09:38:21.808Z,98998
2017-06-16T09:40:49.875Z,99012
2017-06-16T09:43:17.955Z,98993
2017-06-16T09:45:46.026Z,99002
2017-06-16T09:48:14.099Z,99005
2017-06-16T09:53:16.553Z,98999
2017-06-16T09:55:44.627Z,99008
2017-06-16T09:58:12.719Z,99015
2017-06-16T10:00:40.825Z,99003
2017-06-16T10:03:09.676Z,99008
2017-06-16T10:05:37.757Z,99011
2017-06-16T10:08:05.826Z,99009
2017-06-16T10:10:33.898Z,99001
2017-06-16T10:13:01.971Z,99013
2017-06-16T10:15:30.059Z,99024
2017-06-16T10:17:58.123Z,99015
2017-06-16T10:20:26.199Z,99020
2017-06-16T10:22:54.264Z,99013
2017-06-16T10:25:22.334Z,99018
2017-06-16T10:27:50.417Z,99022
2017-06-16T10:30:18.483Z,99012
2017-06-16T10:32:46.568Z,99020
2017-06-16T10:35:14.660Z,99017
2017-06-16T10:37:43.494Z,99013
2017-06-16T10:40:11.580Z,99014
2017-06-16T10:42:39.648Z,99019
2017-06-16T10:45:07.731Z,99011
2017-06-16T10:47:35.803Z,99025
2017-06-16T10:50:03.895Z,99018
2017-06-16T10:52:31.994Z,99027
2017-06-16T10:55:00.855Z,99024
2017-06-16T10:57:28.931Z,99021
2017-06-16T10:59:57.008Z,99027
2017-06-16T11:02:25.081Z,99025
2017-06-16T11:04:53.148Z,99016
2017-06-16T11:07:21.239Z,99018
2017-06-16T11:09:49.311Z,99026
2017-06-16T11:12:18.154Z,99030
2017-06-16T11:14:46.219Z,99028
2017-06-16T11:17:14.299Z,99035
2017-06-16T11:19:42.363Z,99021
2017-06-16T11:22:10.455Z,99030
2017-06-16T11:24:38.527Z,99038
2017-06-16T11:27:06.599Z,99030
2017-06-16T11:29:34.683Z,99042
2017-06-16T11:32:02.743Z,99016
2017-06-16T11:34:30.819Z,99034
2017-06-16T11:36:58.908Z,99042
2017-06-16T11:39:27.000Z,99038
2017-06-16T11:41:55.067Z,99031
2017-06-16T11:44:23.122Z,99040
2017-06-16T11:46:51.199Z,99034
2017-06-16T11:49:19.267Z,99040
2017-06-16T11:51:47.347Z,99034
2017-06-16T11:54:15.422Z,99034
2017-06-16T11:56:43.491Z,99030
2017-06-16T11:59:11.555Z,99034
2017-06-16T12:01:39.638Z,99036
2017-06-16T12:04:07.710Z,99030
2017-06-16T12:06:35.776Z,99027
2017-06-16T12:09:03.855Z,99020
2017-06-16T12:11:31.915Z,99022
2017-06-16T12:13:59.992Z,99035
2017-06-16T12:16:28.063Z,99032
2017-06-16T12:18:56.135Z,99028
2017-06-16T12:21:24.207Z,99035
2017-06-16T12:23:52.298Z,99036
2017-06-16T12:26:21.135Z,99047
2017-06-16T12:28:49.201Z,99044
2017-06-16T12:31:17.358Z,99047
2017-06-16T12:33:45.451Z,99058
2017-06-16T12:36:13.530Z,99048
2017-06-16T12:38:41.595Z,99038
2017-06-16T12:41:09.666Z,99028
2017-06-16T12:43:37.738Z,99037
2017-06-16T12:46:05.834Z,99050
2017-06-16T12:48:33.911Z,99041
2017-06-16T12:51:01.979Z,99039
2017-06-16T12:53:30.057Z,99037
2017-06-16T12:55:58.124Z,99036
2017-06-16T12:58:26.199Z,99034
2017-06-16T13:00:54.267Z,99024
2017-06-16T13:03:23.162Z,99043
2017-06-16T13:05:51.237Z,99042
2017-06-16T13:08:19.323Z,99052
2017-06-16T13:10:47.395Z,99051
2017-06-16T13:13:15.468Z,99065
2017-06-16T13:15:43.550Z,99054
2017-06-16T13:18:11.623Z,99051
2017-06-16T13:20:39.697Z,99052
2017-06-16T13:23:07.755Z,99059
2017-06-16T13:25:35.839Z,99049
2017-06-16T13:28:03.903Z,99058
2017-06-16T13:30:31.986Z,99065
2017-06-16T13:33:00.828Z,99069
2017-06-16T13:35:28.899Z,99063
2017-06-16T13:37:56.974Z,99068
2017-06-16T13:40:25.046Z,99073
2017-06-16T13:42:53.127Z,99064
2017-06-16T13:45:21.223Z,99063
2017-06-16T13:47:49.331Z,99061
2017-06-16T13:50:18.175Z,99055
2017-06-16T13:52:46.248Z,99059
2017-06-16T13:55:14.320Z,99061
2017-06-16T13:57:42.418Z,99058
2017-06-16T14:00:10.490Z,99066
2017-06-16T14:02:38.563Z,99054
2017-06-16T14:05:06.634Z,99055
2017-06-16T14:07:34.695Z,99067
2017-06-16T14:10:02.778Z,99057
2017-06-16T14:12:30.844Z,99060
2017-06-16T14:14:58.922Z,99059
2017-06-16T14:17:26.982Z,99049
2017-06-16T14:19:55.071Z,99063
2017-06-16T14:22:23.130Z,99041
2017-06-16T14:24:51.205Z,99037
2017-06-16T14:27:19.283Z,99054
2017-06-16T14:29:47.343Z,99050
2017-06-16T14:32:15.440Z,99050
2017-06-16T14:34:44.267Z,99055
2017-06-16T14:37:12.355Z,99060
2017-06-16T14:39:40.435Z,99061
2017-06-16T14:42:08.504Z,99067
2017-06-16T14:44:36.571Z,99056
2017-06-16T14:47:04.670Z,99059
2017-06-16T14:49:32.760Z,99044
2017-06-16T14:52:01.611Z,99054
2017-06-16T14:54:29.687Z,99055
2017-06-16T14:56:57.764Z,99061
2017-06-16T14:59:25.845Z,99076
2017-06-16T15:01:53.907Z,99072
2017-06-16T15:04:21.988Z,99065
2017-06-16T15:06:50.060Z,99070
2017-06-16T15:09:18.143Z,99068
2017-06-16T15:11:46.215Z,99065
2017-06-16T15:14:14.298Z,99067
2017-06-16T15:16:42.370Z,99064
2017-06-16T15:19:11.215Z,99072
2017-06-16T15:21:39.294Z,99079
2017-06-16T15:24:07.369Z,99084
2017-06-16T15:26:35.448Z,99074
2017-06-16T15:29:03.522Z,99086
2017-06-16T15:31:31.599Z,99086
2017-06-16T15:33:59.668Z,99088
2017-06-16T15:36:27.753Z,99089
2017-06-16T15:38:55.829Z,99095
2017-06-16T15:41:23.965Z,99096
2017-06-16T15:43:52.038Z,99095
2017-06-16T15:46:20.108Z,99109
2017-06-16T15:48:48.183Z,99103
2017-06-16T15:51:16.262Z,99110
2017-06-16T15:53:44.352Z,99104
2017-06-16T15:56:12.415Z,99108
2017-06-16T15:58:40.521Z,99116
2017-06-16T16:01:08.567Z,99119
2017-06-16T16:03:36.655Z,99120
2017-06-16T16:06:04.727Z,99121
2017-06-16T16:08:32.811Z,99132
2017-06-16T16:11:00.908Z,99133
2017-06-16T16:13:28.974Z,99130
2017-06-16T16:15:57.051Z,99131
2017-06-16T16:18:25.124Z,99120
2017-06-16T16:20:53.200Z,99139
2017-06-16T16:23:21.271Z,99130
2017-06-16T16:25:49.351Z,99145
2017-06-16T16:28:17.436Z,99146
2017-06-16T16:30:45.510Z,99139
2017-06-16T16:33:13.582Z,99145
2017-06-16T16:35:41.663Z,99145
2017-06-16T16:38:09.726Z,99146
2017-06-16T16:40:37.814Z,99147
2017-06-16T16:43:05.878Z,99148
2017-06-16T16:45:33.947Z,99145
2017-06-16T16:48:02.019Z,99159
2017-06-16T16:50:30.090Z,99147
2017-06-16T16:52:58.163Z,99154
2017-06-16T16:55:26.231Z,99147
2017-06-16T16:57:54.319Z,99154
2017-06-16T17:00:22.447Z,99159
2017-06-16T17:02:50.531Z,99165
2017-06-16T17:05:18.594Z,99174
2017-06-16T17:07:47.439Z,99179
2017-06-16T17:10:15.515Z,99185
2017-06-16T17:12:43.583Z,99183
2017-06-16T17:15:11.659Z,99185
2017-06-16T17:17:39.731Z,99191
2017-06-16T17:20:07.794Z,99190
2017-06-16T17:22:35.871Z,99189
2017-06-16T17:25:03.946Z,99191
2017-06-16T17:27:32.015Z,99187
2017-06-16T17:30:00.086Z,99194
2017-06-16T17:32:28.175Z,99192
2017-06-16T17:34:56.247Z,99203
2017-06-16T17:37:24.324Z,99205
2017-06-16T17:39:52.398Z,99196
2017-06-16T17:42:20.482Z,99204
2017-06-16T17:44:48.554Z,99214
2017-06-16T17:47:16.643Z,99208
2017-06-16T17:49:44.709Z,99210
2017-06-16T17:52:13.547Z,99215
2017-06-16T17:54:41.632Z,99232
2017-06-16T17:57:09.702Z,99224
2017-06-16T17:59:37.775Z,99220
2017-06-16T18:02:05.846Z,99225
2017-06-16T18:04:33.938Z,99230
2017-06-16T18:07:02.012Z,99237
2017-06-16T18:09:30.085Z,99245
2017-06-16T18:11:58.163Z,99250
2017-06-16T18:14:26.227Z,99254
2017-06-16T18:16:54.304Z,99259
2017-06-16T18:19:22.371Z,99251
2017-06-16T18:21:50.447Z,99252
2017-06-16T18:24:18.516Z,99255
2017-06-16T18:26:46.586Z,99250
2017-06-16T18:29:14.663Z,99256
2017-06-16T18:31:42.754Z,99271
2017-06-16T18:34:11.591Z,99269
2017-06-16T18:36:39.661Z,99273
2017-06-16T18:39:07.781Z,99279
2017-06-16T18:41:35.842Z,99277
2017-06-16T18:44:03.910Z,99292
2017-06-16T18:46:31.983Z,99287
2017-06-16T18:49:00.055Z,99289
2017-06-16T18:51:28.135Z,99293
2017-06-16T18:53:56.220Z,99299
2017-06-16T18:56:24.290Z,99299
2017-06-16T18:58:53.152Z,99293
2017-06-16T19:01:21.222Z,99293
2017-06-16T19:03:49.296Z,99298
2017-06-16T19:06:17.367Z,99298
2017-06-16T19:08:45.442Z,99298
2017-06-16T19:11:13.527Z,99307
2017-06-16T19:13:41.604Z,99308
2017-06-16T19:16:09.675Z,99319
2017-06-16T19:18:37.755Z,99312
2017-06-16T19:21:05.832Z,99311
2017-06-16T19:23:33.894Z,99326
2017-06-16T19:26:01.978Z,99324
2017-06-16T19:28:30.039Z,99313
2017-06-16T19:30:58.110Z,99322
2017-06-16T19:33:26.195Z,99320
2017-06-16T19:35:54.262Z,99332
2017-06-16T19:38:22.346Z,99333
2017-06-16T19:40:51.180Z,99340
2017-06-16T19:43:19.263Z,99340
2017-06-16T19:45:47.335Z,99336
2017-06-16T19:48:15.410Z,99343
2017-06-16T19:50:43.488Z,99346
2017-06-16T19:53:11.586Z,99356
2017-06-16T19:55:39.659Z,99355
2017-06-16T19:58:07.728Z,99364
2017-06-16T20:00:35.802Z,99366
2017-06-16T20:03:03.868Z,99366
2017-06-16T20:05:31.950Z,99370
2017-06-16T20:08:00.021Z,99371
2017-06-16T20:10:28.091Z,99378
2017-06-16T20:12:56.156Z,99373
2017-06-16T20:15:24.230Z,99378
2017-06-16T20:17:52.301Z,99381
2017-06-16T20:20:20.391Z,99381
2017-06-16T20:22:49.226Z,99379
2017-06-16T20:25:17.302Z,99375
2017-06-16T20:27:45.379Z,99386
2017-06-16T20:30:13.452Z,99381
2017-06-16T20:32:41.534Z,99383
2017-06-16T20:35:09.612Z,99390
2017-06-16T20:37:37.683Z,99390
2017-06-16T20:40:05.750Z,99397
2017-06-16T20:42:33.829Z,99402
2017-06-16T20:45:01.894Z,99407
2017-06-16T20:47:29.998Z,99407
2017-06-16T20:49:58.067Z,99413
2017-06-16T20:52:26.134Z,99413
2017-06-16T20:54:54.228Z,99414
2017-06-16T20:57:22.299Z,99419
2017-06-16T20:59:51.148Z,99424
2017-06-16T21:02:19.230Z,99421
2017-06-16T21:04:47.311Z,99433
2017-06-16T21:07:15.384Z,99438
2017-06-16T21:09:43.466Z,99439
2017-06-16T21:12:11.530Z,99438
2017-06-16T21:14:39.628Z,99438
2017-06-16T21:17:07.699Z,99446
2017-06-16T21:19:36.527Z,99448
2017-06-16T21:22:10.143Z,99450
2017-06-16T21:24:38.227Z,99460
2017-06-16T21:27:06.307Z,99461
2017-06-16T21:29:34.382Z,99458
2017-06-16T21:32:02.474Z,99465
2017-06-16T21:34:31.312Z,99462
2017-06-16T21:36:59.402Z,99473
2017-06-16T21:39:27.474Z,99474
2017-06-16T21:41:55.546Z,99484
2017-06-16T21:44:23.623Z,99470
2017-06-16T21:46:51.696Z,99475
2017-06-16T21:49:19.784Z,99474
2017-06-16T21:51:47.839Z,99475
2017-06-16T21:54:15.928Z,99472
2017-06-16T21:56:43.995Z,99478
2017-06-16T21:59:12.083Z,99477
2017-06-16T22:01:40.139Z,99474
2017-06-16T22:04:08.611Z,99493
2017-06-16T22:06:36.683Z,99488
2017-06-16T22:09:04.751Z,99479
2017-06-16T22:11:32.835Z,99482
2017-06-16T22:14:00.911Z,99489
2017-06-16T22:16:28.982Z,99487
2017-06-16T22:18:57.046Z,99486
2017-06-16T22:21:25.131Z,99483
2017-06-16T22:23:53.263Z,99482
2017-06-16T22:26:21.342Z,99490
2017-06-16T22:28:49.408Z,99497
2017-06-16T22:31:17.487Z,99493
2017-06-16T22:33:45.559Z,99498
2017-06-16T22:36:13.854Z,99495
2017-06-16T22:38:41.926Z,99499
2017-06-16T22:41:09.999Z,99495
2017-06-16T22:43:38.074Z,99501
2017-06-16T22:46:06.146Z,99499
2017-06-16T22:48:34.223Z,99492
2017-06-16T22:51:02.296Z,99487
2017-06-16T22:53:30.379Z,99492
2017-06-16T22:55:58.446Z,99495
2017-06-16T22:58:26.522Z,99500
2017-06-16T23:00:54.591Z,99502
2017-06-16T23:03:22.672Z,99507
2017-06-16T23:05:50.738Z,99515
2017-06-16T23:08:18.810Z,99513
2017-06-16T23:10:46.895Z,99515
2017-06-16T23:13:14.958Z,99514
2017-06-16T23:15:43.039Z,99509
2017-06-16T23:18:11.111Z,99508
2017-06-16T23:20:39.174Z,99504
2017-06-16T23:23:07.256Z,99509
2017-06-16T23:25:35.350Z,99507
2017-06-16T23:28:04.176Z,99509
2017-06-16T23:30:32.271Z,99524
2017-06-16T23:33:00.338Z,99524
2017-06-16T23:35:28.412Z,99531
2017-06-16T23:37:56.488Z,99534
2017-06-16T23:40:24.554Z,99530
2017-06-16T23:42:52.628Z,99521
2017-06-16T23:45:20.694Z,99530
2017-06-16T23:47:48.774Z,99530
2017-06-16T23:50:16.843Z,99532
2017-06-16T23:52:44.931Z,99540
2017-06-16T23:55:13.004Z,99532
2017-06-16T23:57:41.064Z,99533
